sensor_id;sensor_type;location;lat;lon;timestamp;pressure;altitude;pressure_sealevel;temperature
48894;BMP280;34710;35.798;139.446;2023-04-08T00:01:47;99458.75;;;19.20
48894;BMP280;34710;35.798;139.446;2023-04-08T00:04:12;99448.67;;;18.74
48894;BMP280;34710;35.798;139.446;2023-04-08T00:06:38;99443.82;;;18.59
48894;BMP280;34710;35.798;139.446;2023-04-08T00:09:02;99446.97;;;18.68
48894;BMP280;34710;35.798;139.446;2023-04-08T00:11:27;99448.00;;;19.16
48894;BMP280;34710;35.798;139.446;2023-04-08T00:13:52;99442.60;;;19.30
48894;BMP280;34710;35.798;139.446;2023-04-08T00:16:19;99447.38;;;19.47
48894;BMP280;34710;35.798;139.446;2023-04-08T00:18:43;99447.92;;;19.89
48894;BMP280;34710;35.798;139.446;2023-04-08T00:21:09;99448.48;;;20.28
48894;BMP280;34710;35.798;139.446;2023-04-08T00:23:34;99445.51;;;20.53
48894;BMP280;34710;35.798;139.446;2023-04-08T00:26:00;99445.80;;;20.20
48894;BMP280;34710;35.798;139.446;2023-04-08T00:28:25;99445.92;;;20.74
48894;BMP280;34710;35.798;139.446;2023-04-08T00:30:49;99439.51;;;20.75
48894;BMP280;34710;35.798;139.446;2023-04-08T00:33:15;99438.41;;;20.72
48894;BMP280;34710;35.798;139.446;2023-04-08T00:35:40;99438.37;;;21.26
48894;BMP280;34710;35.798;139.446;2023-04-08T00:38:05;99439.38;;;20.98
48894;BMP280;34710;35.798;139.446;2023-04-08T00:40:30;99437.98;;;21.12
48894;BMP280;34710;35.798;139.446;2023-04-08T00:42:56;99435.66;;;21.06
48894;BMP280;34710;35.798;139.446;2023-04-08T00:45:21;99428.55;;;21.35
48894;BMP280;34710;35.798;139.446;2023-04-08T00:47:45;99427.71;;;21.98
48894;BMP280;34710;35.798;139.446;2023-04-08T00:50:11;99417.14;;;22.21
48894;BMP280;34710;35.798;139.446;2023-04-08T00:52:35;99415.71;;;23.31
48894;BMP280;34710;35.798;139.446;2023-04-08T00:55:01;99417.28;;;22.06
48894;BMP280;34710;35.798;139.446;2023-04-08T00:57:26;99408.94;;;22.08
48894;BMP280;34710;35.798;139.446;2023-04-08T00:59:51;99407.08;;;23.00
48894;BMP280;34710;35.798;139.446;2023-04-08T01:02:21;99404.64;;;23.20
48894;BMP280;34710;35.798;139.446;2023-04-08T01:04:48;99408.40;;;23.11
48894;BMP280;34710;35.798;139.446;2023-04-08T01:07:11;99402.63;;;23.46
48894;BMP280;34710;35.798;139.446;2023-04-08T01:09:34;99402.77;;;23.80
48894;BMP280;34710;35.798;139.446;2023-04-08T01:11:57;99403.68;;;23.82
48894;BMP280;34710;35.798;139.446;2023-04-08T01:14:24;99406.07;;;22.73
48894;BMP280;34710;35.798;139.446;2023-04-08T01:16:47;99397.97;;;22.98
48894;BMP280;34710;35.798;139.446;2023-04-08T01:19:19;99395.94;;;22.99
48894;BMP280;34710;35.798;139.446;2023-04-08T01:21:37;99400.48;;;23.08
48894;BMP280;34710;35.798;139.446;2023-04-08T01:24:08;99399.73;;;23.94
48894;BMP280;34710;35.798;139.446;2023-04-08T01:26:27;99400.36;;;25.06
48894;BMP280;34710;35.798;139.446;2023-04-08T01:28:55;99395.53;;;25.29
48894;BMP280;34710;35.798;139.446;2023-04-08T01:31:17;99403.39;;;25.36
48894;BMP280;34710;35.798;139.446;2023-04-08T01:33:43;99407.37;;;24.97
48894;BMP280;34710;35.798;139.446;2023-04-08T01:36:08;99404.61;;;24.39
48894;BMP280;34710;35.798;139.446;2023-04-08T01:38:34;99405.60;;;24.19
48894;BMP280;34710;35.798;139.446;2023-04-08T01:40:58;99400.57;;;23.83
48894;BMP280;34710;35.798;139.446;2023-04-08T01:43:24;99403.49;;;23.68
48894;BMP280;34710;35.798;139.446;2023-04-08T01:45:48;99404.04;;;23.72
48894;BMP280;34710;35.798;139.446;2023-04-08T01:48:14;99402.04;;;24.00
48894;BMP280;34710;35.798;139.446;2023-04-08T01:50:38;99396.51;;;24.16
48894;BMP280;34710;35.798;139.446;2023-04-08T01:53:04;99394.52;;;24.83
48894;BMP280;34710;35.798;139.446;2023-04-08T01:55:29;99388.37;;;23.73
48894;BMP280;34710;35.798;139.446;2023-04-08T01:57:57;99395.48;;;24.16
48894;BMP280;34710;35.798;139.446;2023-04-08T02:00:23;99390.84;;;24.75
48894;BMP280;34710;35.798;139.446;2023-04-08T02:02:47;99390.74;;;24.62
48894;BMP280;34710;35.798;139.446;2023-04-08T02:05:11;99390.38;;;24.59
48894;BMP280;34710;35.798;139.446;2023-04-08T02:07:36;99382.03;;;25.19
48894;BMP280;34710;35.798;139.446;2023-04-08T02:10:01;99382.89;;;25.63
48894;BMP280;34710;35.798;139.446;2023-04-08T02:12:27;99380.64;;;25.91
48894;BMP280;34710;35.798;139.446;2023-04-08T02:14:52;99384.08;;;25.00
48894;BMP280;34710;35.798;139.446;2023-04-08T02:17:22;99380.92;;;26.07
48894;BMP280;34710;35.798;139.446;2023-04-08T02:19:46;99377.73;;;26.10
48894;BMP280;34710;35.798;139.446;2023-04-08T02:22:16;99377.15;;;26.72
48894;BMP280;34710;35.798;139.446;2023-04-08T02:24:34;99380.00;;;27.27
48894;BMP280;34710;35.798;139.446;2023-04-08T02:26:58;99376.88;;;27.40
48894;BMP280;34710;35.798;139.446;2023-04-08T02:29:24;99380.36;;;25.07
48894;BMP280;34710;35.798;139.446;2023-04-08T02:31:50;99379.65;;;26.27
48894;BMP280;34710;35.798;139.446;2023-04-08T02:34:14;99377.34;;;26.23
48894;BMP280;34710;35.798;139.446;2023-04-08T02:36:39;99376.25;;;25.29
48894;BMP280;34710;35.798;139.446;2023-04-08T02:39:04;99370.40;;;25.92
48894;BMP280;34710;35.798;139.446;2023-04-08T02:41:29;99370.47;;;25.65
48894;BMP280;34710;35.798;139.446;2023-04-08T02:43:54;99367.70;;;25.08
48894;BMP280;34710;35.798;139.446;2023-04-08T02:46:19;99369.47;;;25.24
48894;BMP280;34710;35.798;139.446;2023-04-08T02:48:44;99359.77;;;25.05
48894;BMP280;34710;35.798;139.446;2023-04-08T02:51:09;99353.96;;;25.09
48894;BMP280;34710;35.798;139.446;2023-04-08T02:53:34;99349.71;;;24.74
48894;BMP280;34710;35.798;139.446;2023-04-08T02:56:00;99354.61;;;23.63
48894;BMP280;34710;35.798;139.446;2023-04-08T02:58:25;99346.98;;;24.47
48894;BMP280;34710;35.798;139.446;2023-04-08T03:00:50;99343.27;;;23.86
48894;BMP280;34710;35.798;139.446;2023-04-08T03:03:15;99342.74;;;22.81
48894;BMP280;34710;35.798;139.446;2023-04-08T03:05:41;99338.22;;;24.54
48894;BMP280;34710;35.798;139.446;2023-04-08T03:08:06;99332.08;;;25.22
48894;BMP280;34710;35.798;139.446;2023-04-08T03:10:30;99322.19;;;25.50
48894;BMP280;34710;35.798;139.446;2023-04-08T03:12:55;99328.72;;;23.43
48894;BMP280;34710;35.798;139.446;2023-04-08T03:15:20;99328.02;;;23.07
48894;BMP280;34710;35.798;139.446;2023-04-08T03:17:46;99323.39;;;24.71
48894;BMP280;34710;35.798;139.446;2023-04-08T03:20:11;99321.16;;;24.65
48894;BMP280;34710;35.798;139.446;2023-04-08T03:22:36;99316.59;;;24.08
48894;BMP280;34710;35.798;139.446;2023-04-08T03:25:01;99312.52;;;23.92
48894;BMP280;34710;35.798;139.446;2023-04-08T03:27:26;99303.08;;;23.49
48894;BMP280;34710;35.798;139.446;2023-04-08T03:29:51;99306.20;;;22.48
48894;BMP280;34710;35.798;139.446;2023-04-08T03:32:16;99304.25;;;22.26
48894;BMP280;34710;35.798;139.446;2023-04-08T03:34:41;99303.45;;;21.79
48894;BMP280;34710;35.798;139.446;2023-04-08T03:37:06;99305.42;;;22.48
48894;BMP280;34710;35.798;139.446;2023-04-08T03:39:31;99305.23;;;22.35
48894;BMP280;34710;35.798;139.446;2023-04-08T03:41:56;99300.45;;;22.17
48894;BMP280;34710;35.798;139.446;2023-04-08T03:44:22;99302.05;;;22.06
48894;BMP280;34710;35.798;139.446;2023-04-08T03:46:47;99301.00;;;21.62
48894;BMP280;34710;35.798;139.446;2023-04-08T03:49:12;99310.77;;;21.92
48894;BMP280;34710;35.798;139.446;2023-04-08T03:51:37;99316.40;;;21.97
48894;BMP280;34710;35.798;139.446;2023-04-08T03:54:03;99317.21;;;21.66
48894;BMP280;34710;35.798;139.446;2023-04-08T03:56:27;99312.50;;;22.04
48894;BMP280;34710;35.798;139.446;2023-04-08T03:58:52;99302.57;;;21.84
48894;BMP280;34710;35.798;139.446;2023-04-08T04:01:17;99311.31;;;21.15
48894;BMP280;34710;35.798;139.446;2023-04-08T04:03:43;99318.44;;;21.59
48894;BMP280;34710;35.798;139.446;2023-04-08T04:06:08;99317.46;;;20.78
48894;BMP280;34710;35.798;139.446;2023-04-08T04:08:33;99300.95;;;20.96
48894;BMP280;34710;35.798;139.446;2023-04-08T04:10:59;99304.51;;;20.39
48894;BMP280;34710;35.798;139.446;2023-04-08T04:13:23;99310.18;;;20.92
48894;BMP280;34710;35.798;139.446;2023-04-08T04:15:48;99300.69;;;20.79
48894;BMP280;34710;35.798;139.446;2023-04-08T04:18:14;99292.40;;;21.00
48894;BMP280;34710;35.798;139.446;2023-04-08T04:20:41;99294.63;;;21.21
48894;BMP280;34710;35.798;139.446;2023-04-08T04:23:04;99294.21;;;21.19
48894;BMP280;34710;35.798;139.446;2023-04-08T04:25:29;99287.74;;;20.71
48894;BMP280;34710;35.798;139.446;2023-04-08T04:27:54;99277.14;;;20.50
48894;BMP280;34710;35.798;139.446;2023-04-08T04:30:20;99275.28;;;21.08
48894;BMP280;34710;35.798;139.446;2023-04-08T04:32:45;99278.03;;;20.83
48894;BMP280;34710;35.798;139.446;2023-04-08T04:35:10;99279.37;;;20.68
48894;BMP280;34710;35.798;139.446;2023-04-08T04:37:35;99272.20;;;20.46
48894;BMP280;34710;35.798;139.446;2023-04-08T04:40:01;99264.26;;;20.59
48894;BMP280;34710;35.798;139.446;2023-04-08T04:42:26;99251.08;;;20.37
48894;BMP280;34710;35.798;139.446;2023-04-08T04:44:51;99261.43;;;18.72
48894;BMP280;34710;35.798;139.446;2023-04-08T04:47:16;99269.13;;;19.12
48894;BMP280;34710;35.798;139.446;2023-04-08T04:49:41;99262.73;;;19.35
48894;BMP280;34710;35.798;139.446;2023-04-08T04:52:07;99260.34;;;18.87
48894;BMP280;34710;35.798;139.446;2023-04-08T04:54:32;99257.48;;;19.77
48894;BMP280;34710;35.798;139.446;2023-04-08T04:56:57;99270.73;;;18.14
48894;BMP280;34710;35.798;139.446;2023-04-08T04:59:22;99277.57;;;18.41
48894;BMP280;34710;35.798;139.446;2023-04-08T05:01:47;99279.12;;;19.28
48894;BMP280;34710;35.798;139.446;2023-04-08T05:04:13;99275.21;;;19.81
48894;BMP280;34710;35.798;139.446;2023-04-08T05:06:38;99292.16;;;19.88
48894;BMP280;34710;35.798;139.446;2023-04-08T05:09:03;99284.35;;;20.08
48894;BMP280;34710;35.798;139.446;2023-04-08T05:11:28;99274.08;;;19.00
48894;BMP280;34710;35.798;139.446;2023-04-08T05:13:53;99276.62;;;19.56
48894;BMP280;34710;35.798;139.446;2023-04-08T05:16:19;99291.15;;;19.04
48894;BMP280;34710;35.798;139.446;2023-04-08T05:18:43;99290.39;;;18.89
48894;BMP280;34710;35.798;139.446;2023-04-08T05:21:09;99294.38;;;18.43
48894;BMP280;34710;35.798;139.446;2023-04-08T05:23:35;99302.26;;;18.80
48894;BMP280;34710;35.798;139.446;2023-04-08T05:25:59;99309.50;;;19.12
48894;BMP280;34710;35.798;139.446;2023-04-08T05:28:25;99321.70;;;18.68
48894;BMP280;34710;35.798;139.446;2023-04-08T05:30:50;99310.31;;;18.93
48894;BMP280;34710;35.798;139.446;2023-04-08T05:33:15;99305.34;;;18.65
48894;BMP280;34710;35.798;139.446;2023-04-08T05:35:40;99322.19;;;18.98
48894;BMP280;34710;35.798;139.446;2023-04-08T05:38:05;99300.56;;;19.37
48894;BMP280;34710;35.798;139.446;2023-04-08T05:40:31;99299.45;;;18.78
48894;BMP280;34710;35.798;139.446;2023-04-08T05:42:57;99311.74;;;18.95
48894;BMP280;34710;35.798;139.446;2023-04-08T05:45:22;99317.02;;;18.61
48894;BMP280;34710;35.798;139.446;2023-04-08T05:47:47;99309.30;;;18.89
48894;BMP280;34710;35.798;139.446;2023-04-08T05:50:13;99304.01;;;18.67
48894;BMP280;34710;35.798;139.446;2023-04-08T05:52:41;99314.38;;;17.23
48894;BMP280;34710;35.798;139.446;2023-04-08T05:55:03;99305.25;;;17.61
48894;BMP280;34710;35.798;139.446;2023-04-08T05:57:29;99295.20;;;18.10
48894;BMP280;34710;35.798;139.446;2023-04-08T05:59:54;99304.97;;;17.90
48894;BMP280;34710;35.798;139.446;2023-04-08T06:02:19;99295.83;;;17.97
48894;BMP280;34710;35.798;139.446;2023-04-08T06:04:45;99289.10;;;17.80
48894;BMP280;34710;35.798;139.446;2023-04-08T06:07:10;99279.35;;;17.44
48894;BMP280;34710;35.798;139.446;2023-04-08T06:09:36;99258.80;;;18.16
48894;BMP280;34710;35.798;139.446;2023-04-08T06:12:00;99276.87;;;18.32
48894;BMP280;34710;35.798;139.446;2023-04-08T06:14:25;99275.42;;;18.43
48894;BMP280;34710;35.798;139.446;2023-04-08T06:16:50;99264.25;;;17.82
48894;BMP280;34710;35.798;139.446;2023-04-08T06:19:16;99264.36;;;18.14
48894;BMP280;34710;35.798;139.446;2023-04-08T06:21:41;99281.28;;;18.08
48894;BMP280;34710;35.798;139.446;2023-04-08T06:24:07;99291.29;;;18.25
48894;BMP280;34710;35.798;139.446;2023-04-08T06:26:31;99286.47;;;17.41
48894;BMP280;34710;35.798;139.446;2023-04-08T06:28:57;99269.45;;;16.97
48894;BMP280;34710;35.798;139.446;2023-04-08T06:31:22;99257.87;;;17.87
48894;BMP280;34710;35.798;139.446;2023-04-08T06:33:47;99268.79;;;17.70
48894;BMP280;34710;35.798;139.446;2023-04-08T06:36:12;99265.32;;;16.57
48894;BMP280;34710;35.798;139.446;2023-04-08T06:38:37;99277.68;;;14.57
48894;BMP280;34710;35.798;139.446;2023-04-08T06:41:03;99277.35;;;15.35
48894;BMP280;34710;35.798;139.446;2023-04-08T06:43:28;99278.04;;;16.15
48894;BMP280;34710;35.798;139.446;2023-04-08T06:45:53;99271.33;;;16.48
48894;BMP280;34710;35.798;139.446;2023-04-08T06:48:18;99301.65;;;16.72
48894;BMP280;34710;35.798;139.446;2023-04-08T06:50:43;99291.15;;;17.03
48894;BMP280;34710;35.798;139.446;2023-04-08T06:53:09;99284.40;;;17.42
48894;BMP280;34710;35.798;139.446;2023-04-08T06:55:34;99284.23;;;17.73
48894;BMP280;34710;35.798;139.446;2023-04-08T06:57:59;99300.39;;;17.05
48894;BMP280;34710;35.798;139.446;2023-04-08T07:00:25;99312.65;;;18.11
48894;BMP280;34710;35.798;139.446;2023-04-08T07:02:51;99291.59;;;17.17
48894;BMP280;34710;35.798;139.446;2023-04-08T07:05:16;99294.87;;;17.70
48894;BMP280;34710;35.798;139.446;2023-04-08T07:07:41;99296.07;;;17.88
48894;BMP280;34710;35.798;139.446;2023-04-08T07:10:07;99299.04;;;17.99
48894;BMP280;34710;35.798;139.446;2023-04-08T07:12:32;99304.41;;;18.32
48894;BMP280;34710;35.798;139.446;2023-04-08T07:14:58;99307.72;;;18.15
48894;BMP280;34710;35.798;139.446;2023-04-08T07:17:23;99323.81;;;17.78
48894;BMP280;34710;35.798;139.446;2023-04-08T07:19:48;99324.48;;;17.35
48894;BMP280;34710;35.798;139.446;2023-04-08T07:22:14;99346.26;;;17.52
48894;BMP280;34710;35.798;139.446;2023-04-08T07:24:39;99356.94;;;17.18
48894;BMP280;34710;35.798;139.446;2023-04-08T07:27:05;99368.00;;;17.76
48894;BMP280;34710;35.798;139.446;2023-04-08T07:29:30;99363.57;;;17.49
48894;BMP280;34710;35.798;139.446;2023-04-08T07:31:55;99356.32;;;17.85
48894;BMP280;34710;35.798;139.446;2023-04-08T07:34:20;99345.99;;;17.82
48894;BMP280;34710;35.798;139.446;2023-04-08T07:36:45;99337.10;;;17.78
48894;BMP280;34710;35.798;139.446;2023-04-08T07:39:11;99326.53;;;17.42
48894;BMP280;34710;35.798;139.446;2023-04-08T07:41:36;99328.31;;;17.27
48894;BMP280;34710;35.798;139.446;2023-04-08T07:44:02;99333.01;;;16.78
48894;BMP280;34710;35.798;139.446;2023-04-08T07:46:28;99333.87;;;16.16
48894;BMP280;34710;35.798;139.446;2023-04-08T07:48:53;99337.70;;;15.37
48894;BMP280;34710;35.798;139.446;2023-04-08T07:51:18;99351.53;;;15.67
48894;BMP280;34710;35.798;139.446;2023-04-08T07:53:43;99364.73;;;15.72
48894;BMP280;34710;35.798;139.446;2023-04-08T07:56:14;99358.19;;;15.07
48894;BMP280;34710;35.798;139.446;2023-04-08T07:58:34;99357.84;;;15.67
48894;BMP280;34710;35.798;139.446;2023-04-08T08:00:59;99370.62;;;15.15
48894;BMP280;34710;35.798;139.446;2023-04-08T08:03:24;99371.07;;;14.78
48894;BMP280;34710;35.798;139.446;2023-04-08T08:05:49;99376.33;;;15.56
48894;BMP280;34710;35.798;139.446;2023-04-08T08:08:15;99391.04;;;14.78
48894;BMP280;34710;35.798;139.446;2023-04-08T08:10:40;99392.72;;;14.52
48894;BMP280;34710;35.798;139.446;2023-04-08T08:13:06;99407.55;;;14.91
48894;BMP280;34710;35.798;139.446;2023-04-08T08:15:30;99405.74;;;14.57
48894;BMP280;34710;35.798;139.446;2023-04-08T08:17:55;99413.80;;;13.69
48894;BMP280;34710;35.798;139.446;2023-04-08T08:20:20;99416.33;;;13.96
48894;BMP280;34710;35.798;139.446;2023-04-08T08:22:45;99421.37;;;14.21
48894;BMP280;34710;35.798;139.446;2023-04-08T08:25:11;99426.52;;;13.98
48894;BMP280;34710;35.798;139.446;2023-04-08T08:27:36;99435.56;;;14.33
48894;BMP280;34710;35.798;139.446;2023-04-08T08:30:01;99439.65;;;14.32
48894;BMP280;34710;35.798;139.446;2023-04-08T08:32:27;99425.46;;;14.53
48894;BMP280;34710;35.798;139.446;2023-04-08T08:34:52;99433.94;;;14.98
48894;BMP280;34710;35.798;139.446;2023-04-08T08:37:18;99432.78;;;14.18
48894;BMP280;34710;35.798;139.446;2023-04-08T08:39:43;99441.39;;;14.74
48894;BMP280;34710;35.798;139.446;2023-04-08T08:44:34;99428.83;;;14.07
48894;BMP280;34710;35.798;139.446;2023-04-08T08:46:59;99421.54;;;14.90
48894;BMP280;34710;35.798;139.446;2023-04-08T08:49:23;99413.22;;;14.50
48894;BMP280;34710;35.798;139.446;2023-04-08T08:51:49;99414.62;;;14.56
48894;BMP280;34710;35.798;139.446;2023-04-08T08:54:15;99412.29;;;15.31
48894;BMP280;34710;35.798;139.446;2023-04-08T08:56:39;99410.47;;;14.93
48894;BMP280;34710;35.798;139.446;2023-04-08T08:59:04;99413.95;;;14.54
48894;BMP280;34710;35.798;139.446;2023-04-08T09:01:34;99420.92;;;14.94
48894;BMP280;34710;35.798;139.446;2023-04-08T09:04:08;99431.32;;;13.94
48894;BMP280;34710;35.798;139.446;2023-04-08T09:06:20;99443.67;;;13.47
48894;BMP280;34710;35.798;139.446;2023-04-08T09:08:48;99443.58;;;14.26
48894;BMP280;34710;35.798;139.446;2023-04-08T09:11:13;99443.03;;;14.04
48894;BMP280;34710;35.798;139.446;2023-04-08T09:13:36;99451.72;;;14.91
48894;BMP280;34710;35.798;139.446;2023-04-08T09:16:02;99449.86;;;14.88
48894;BMP280;34710;35.798;139.446;2023-04-08T09:18:26;99454.72;;;14.62
48894;BMP280;34710;35.798;139.446;2023-04-08T09:20:53;99459.01;;;14.63
48894;BMP280;34710;35.798;139.446;2023-04-08T09:23:17;99449.24;;;14.39
48894;BMP280;34710;35.798;139.446;2023-04-08T09:25:41;99449.00;;;13.80
48894;BMP280;34710;35.798;139.446;2023-04-08T09:30:32;99460.43;;;13.78
48894;BMP280;34710;35.798;139.446;2023-04-08T09:32:58;99463.51;;;12.99
48894;BMP280;34710;35.798;139.446;2023-04-08T09:35:23;99471.41;;;13.24
48894;BMP280;34710;35.798;139.446;2023-04-08T09:37:49;99481.06;;;13.52
48894;BMP280;34710;35.798;139.446;2023-04-08T09:40:13;99492.56;;;12.62
48894;BMP280;34710;35.798;139.446;2023-04-08T09:42:43;99498.83;;;13.22
48894;BMP280;34710;35.798;139.446;2023-04-08T09:45:05;99507.38;;;12.96
48894;BMP280;34710;35.798;139.446;2023-04-08T09:47:29;99520.58;;;11.95
48894;BMP280;34710;35.798;139.446;2023-04-08T09:49:57;99530.03;;;12.81
48894;BMP280;34710;35.798;139.446;2023-04-08T09:52:22;99533.93;;;13.54
48894;BMP280;34710;35.798;139.446;2023-04-08T09:54:50;99536.28;;;13.25
48894;BMP280;34710;35.798;139.446;2023-04-08T09:57:13;99544.90;;;12.68
48894;BMP280;34710;35.798;139.446;2023-04-08T09:59:36;99546.30;;;13.80
48894;BMP280;34710;35.798;139.446;2023-04-08T10:02:06;99567.22;;;13.47
48894;BMP280;34710;35.798;139.446;2023-04-08T10:04:26;99576.68;;;13.56
48894;BMP280;34710;35.798;139.446;2023-04-08T10:06:56;99571.77;;;12.51
48894;BMP280;34710;35.798;139.446;2023-04-08T10:09:16;99586.62;;;13.26
48894;BMP280;34710;35.798;139.446;2023-04-08T10:11:41;99590.16;;;13.34
48894;BMP280;34710;35.798;139.446;2023-04-08T10:14:09;99606.03;;;13.34
48894;BMP280;34710;35.798;139.446;2023-04-08T10:16:32;99611.84;;;12.69
48894;BMP280;34710;35.798;139.446;2023-04-08T10:18:57;99618.57;;;12.38
48894;BMP280;34710;35.798;139.446;2023-04-08T10:21:33;99626.29;;;13.01
48894;BMP280;34710;35.798;139.446;2023-04-08T10:23:56;99633.09;;;12.82
48894;BMP280;34710;35.798;139.446;2023-04-08T10:28:39;99636.66;;;12.21
48894;BMP280;34710;35.798;139.446;2023-04-08T10:31:04;99642.84;;;12.23
48894;BMP280;34710;35.798;139.446;2023-04-08T10:33:33;99650.62;;;12.50
48894;BMP280;34710;35.798;139.446;2023-04-08T10:35:58;99655.58;;;12.01
48894;BMP280;34710;35.798;139.446;2023-04-08T10:38:20;99659.30;;;12.34
48894;BMP280;34710;35.798;139.446;2023-04-08T10:40:46;99668.15;;;11.96
48894;BMP280;34710;35.798;139.446;2023-04-08T10:43:11;99664.59;;;11.76
48894;BMP280;34710;35.798;139.446;2023-04-08T10:45:35;99671.44;;;12.11
48894;BMP280;34710;35.798;139.446;2023-04-08T10:48:13;99672.58;;;12.47
48894;BMP280;34710;35.798;139.446;2023-04-08T10:50:26;99680.52;;;12.38
48894;BMP280;34710;35.798;139.446;2023-04-08T10:52:53;99686.44;;;12.06
48894;BMP280;34710;35.798;139.446;2023-04-08T10:55:19;99687.48;;;12.33
48894;BMP280;34710;35.798;139.446;2023-04-08T10:57:41;99693.75;;;12.68
48894;BMP280;34710;35.798;139.446;2023-04-08T11:00:10;99693.83;;;12.81
48894;BMP280;34710;35.798;139.446;2023-04-08T11:02:34;99703.87;;;13.16
48894;BMP280;34710;35.798;139.446;2023-04-08T11:04:58;99710.73;;;12.60
48894;BMP280;34710;35.798;139.446;2023-04-08T11:07:24;99712.61;;;12.54
48894;BMP280;34710;35.798;139.446;2023-04-08T11:09:48;99714.64;;;12.30
48894;BMP280;34710;35.798;139.446;2023-04-08T11:12:15;99726.88;;;12.99
48894;BMP280;34710;35.798;139.446;2023-04-08T11:14:40;99735.05;;;13.06
48894;BMP280;34710;35.798;139.446;2023-04-08T11:17:03;99740.94;;;12.40
48894;BMP280;34710;35.798;139.446;2023-04-08T11:19:29;99742.03;;;13.02
48894;BMP280;34710;35.798;139.446;2023-04-08T11:21:54;99751.27;;;12.91
48894;BMP280;34710;35.798;139.446;2023-04-08T11:24:19;99759.84;;;12.93
48894;BMP280;34710;35.798;139.446;2023-04-08T11:26:44;99767.59;;;12.73
48894;BMP280;34710;35.798;139.446;2023-04-08T11:29:11;99772.82;;;13.17
48894;BMP280;34710;35.798;139.446;2023-04-08T11:31:34;99777.60;;;13.19
48894;BMP280;34710;35.798;139.446;2023-04-08T11:34:00;99780.61;;;13.63
48894;BMP280;34710;35.798;139.446;2023-04-08T11:36:27;99792.04;;;13.66
48894;BMP280;34710;35.798;139.446;2023-04-08T11:38:52;99798.45;;;13.55
48894;BMP280;34710;35.798;139.446;2023-04-08T11:41:15;99810.40;;;13.35
48894;BMP280;34710;35.798;139.446;2023-04-08T11:43:51;99817.10;;;13.35
48894;BMP280;34710;35.798;139.446;2023-04-08T11:46:10;99820.56;;;13.34
48894;BMP280;34710;35.798;139.446;2023-04-08T11:48:31;99819.83;;;13.24
48894;BMP280;34710;35.798;139.446;2023-04-08T11:51:02;99823.01;;;13.39
48894;BMP280;34710;35.798;139.446;2023-04-08T11:53:25;99833.16;;;13.58
48894;BMP280;34710;35.798;139.446;2023-04-08T11:55:48;99831.78;;;13.55
48894;BMP280;34710;35.798;139.446;2023-04-08T11:58:12;99827.98;;;13.16
48894;BMP280;34710;35.798;139.446;2023-04-08T12:00:39;99835.70;;;13.47
48894;BMP280;34710;35.798;139.446;2023-04-08T12:03:03;99840.19;;;13.55
48894;BMP280;34710;35.798;139.446;2023-04-08T12:05:29;99845.20;;;13.40
48894;BMP280;34710;35.798;139.446;2023-04-08T12:07:54;99856.62;;;13.41
48894;BMP280;34710;35.798;139.446;2023-04-08T12:10:19;99852.44;;;12.94
48894;BMP280;34710;35.798;139.446;2023-04-08T12:12:44;99853.02;;;12.69
48894;BMP280;34710;35.798;139.446;2023-04-08T12:15:11;99851.75;;;11.90
48894;BMP280;34710;35.798;139.446;2023-04-08T12:17:35;99854.28;;;12.45
48894;BMP280;34710;35.798;139.446;2023-04-08T12:20:00;99859.50;;;12.23
48894;BMP280;34710;35.798;139.446;2023-04-08T12:22:25;99865.88;;;11.64
48894;BMP280;34710;35.798;139.446;2023-04-08T12:24:51;99863.22;;;11.12
48894;BMP280;34710;35.798;139.446;2023-04-08T12:27:16;99864.49;;;10.67
48894;BMP280;34710;35.798;139.446;2023-04-08T12:29:41;99872.49;;;11.06
48894;BMP280;34710;35.798;139.446;2023-04-08T12:32:06;99875.34;;;10.78
48894;BMP280;34710;35.798;139.446;2023-04-08T12:34:32;99878.32;;;10.13
48894;BMP280;34710;35.798;139.446;2023-04-08T12:36:57;99870.02;;;10.95
48894;BMP280;34710;35.798;139.446;2023-04-08T12:39:22;99879.76;;;11.17
48894;BMP280;34710;35.798;139.446;2023-04-08T12:41:47;99878.51;;;11.00
48894;BMP280;34710;35.798;139.446;2023-04-08T12:44:12;99884.85;;;10.47
48894;BMP280;34710;35.798;139.446;2023-04-08T12:46:38;99895.19;;;10.75
48894;BMP280;34710;35.798;139.446;2023-04-08T12:49:03;99898.15;;;10.28
48894;BMP280;34710;35.798;139.446;2023-04-08T12:51:28;99903.64;;;10.37
48894;BMP280;34710;35.798;139.446;2023-04-08T12:53:53;99912.63;;;10.77
48894;BMP280;34710;35.798;139.446;2023-04-08T12:56:18;99906.46;;;11.05
48894;BMP280;34710;35.798;139.446;2023-04-08T12:58:44;99911.33;;;10.99
48894;BMP280;34710;35.798;139.446;2023-04-08T13:01:09;99922.40;;;11.07
48894;BMP280;34710;35.798;139.446;2023-04-08T13:03:34;99934.37;;;10.39
48894;BMP280;34710;35.798;139.446;2023-04-08T13:05:59;99937.50;;;10.37
48894;BMP280;34710;35.798;139.446;2023-04-08T13:08:25;99955.49;;;10.53
48894;BMP280;34710;35.798;139.446;2023-04-08T13:10:50;99963.99;;;10.08
48894;BMP280;34710;35.798;139.446;2023-04-08T13:13:16;99968.40;;;10.78
48894;BMP280;34710;35.798;139.446;2023-04-08T13:15:41;99971.14;;;10.36
48894;BMP280;34710;35.798;139.446;2023-04-08T13:18:06;99980.78;;;9.97
48894;BMP280;34710;35.798;139.446;2023-04-08T13:20:31;99983.21;;;9.98
48894;BMP280;34710;35.798;139.446;2023-04-08T13:22:56;99988.52;;;10.44
48894;BMP280;34710;35.798;139.446;2023-04-08T13:25:22;99992.78;;;10.64
48894;BMP280;34710;35.798;139.446;2023-04-08T13:27:47;99994.84;;;10.66
48894;BMP280;34710;35.798;139.446;2023-04-08T13:30:13;100002.11;;;10.21
48894;BMP280;34710;35.798;139.446;2023-04-08T13:32:37;100013.02;;;10.36
48894;BMP280;34710;35.798;139.446;2023-04-08T13:35:03;100005.92;;;10.79
48894;BMP280;34710;35.798;139.446;2023-04-08T13:37:29;100009.70;;;10.68
48894;BMP280;34710;35.798;139.446;2023-04-08T13:39:53;100017.20;;;11.17